createdAt,value
2022-08-03T00:00:07.682Z,91.63
2022-08-03T00:00:54.449Z,91.64
2022-08-03T00:01:42.370Z,91.69
2022-08-03T00:02:29.152Z,91.63
2022-08-03T00:03:15.957Z,91.71
2022-08-03T00:04:03.222Z,91.68
2022-08-03T00:04:50.059Z,91.52
2022-08-03T00:05:37.219Z,91.46
2022-08-03T00:06:24.057Z,91.25
2022-08-03T00:07:10.910Z,91.28
2022-08-03T00:07:57.680Z,91.38
2022-08-03T00:08:44.722Z,91.65
2022-08-03T00:09:35.488Z,91.69
2022-08-03T00:10:22.718Z,91.62
2022-08-03T00:11:09.476Z,91.28
2022-08-03T00:11:56.187Z,91.41
2022-08-03T00:12:42.890Z,91.34
2022-08-03T00:13:29.640Z,91.33
2022-08-03T00:14:16.409Z,91.44
2022-08-03T00:15:04.073Z,90.83
2022-08-03T00:15:57.157Z,91.19
2022-08-03T00:16:43.930Z,91.65
2022-08-03T00:17:30.711Z,92.05
2022-08-03T00:18:38.159Z,92.13
2022-08-03T00:19:24.929Z,91.90
2022-08-03T00:20:12.349Z,92.01
2022-08-03T00:20:59.079Z,91.96
2022-08-03T00:21:45.861Z,91.88
2022-08-03T00:22:35.499Z,91.87
2022-08-03T00:23:22.209Z,91.97
2022-08-03T00:24:09.048Z,91.83
2022-08-03T00:24:55.897Z,91.84
2022-08-03T00:25:42.800Z,91.79
2022-08-03T00:26:29.589Z,91.86
2022-08-03T00:27:16.626Z,91.97
2022-08-03T00:28:04.769Z,92.14
2022-08-03T00:28:51.699Z,92.08
2022-08-03T00:29:59.609Z,91.99
2022-08-03T00:30:45.407Z,91.85
2022-08-03T00:31:45.004Z,91.98
2022-08-03T00:32:44.989Z,92.05
2022-08-03T00:33:58.072Z,92.05
2022-08-03T00:34:57.769Z,92.20
2022-08-03T00:35:51.068Z,91.91
2022-08-03T00:36:37.939Z,91.90
2022-08-03T00:37:24.654Z,91.69
2022-08-03T00:38:28.479Z,91.50
2022-08-03T00:39:15.259Z,91.79
2022-08-03T00:40:03.609Z,92.03
2022-08-03T00:40:52.329Z,92.02
2022-08-03T00:41:39.069Z,92.24
2022-08-03T00:42:28.525Z,92.27
2022-08-03T00:43:15.790Z,92.10
2022-08-03T00:44:02.610Z,92.43
2022-08-03T00:44:49.541Z,92.34
2022-08-03T00:45:40.058Z,92.09
2022-08-03T00:46:26.651Z,92.04
2022-08-03T00:47:13.529Z,92.47
2022-08-03T00:48:01.730Z,92.39
2022-08-03T00:48:52.137Z,92.17
2022-08-03T00:49:41.979Z,91.98
2022-08-03T00:50:31.159Z,91.91
2022-08-03T00:51:19.294Z,91.80
2022-08-03T00:52:09.437Z,92.03
2022-08-03T00:52:57.501Z,92.42
2022-08-03T00:53:44.321Z,92.74
2022-08-03T00:54:31.100Z,92.32
2022-08-03T00:55:18.110Z,92.23
2022-08-03T00:56:05.209Z,92.37
2022-08-03T00:56:59.467Z,92.93
2022-08-03T00:57:46.809Z,93.08
2022-08-03T00:58:33.690Z,93.22
2022-08-03T00:59:21.500Z,93.36
2022-08-03T01:00:09.909Z,93.53
2022-08-03T01:00:56.876Z,94.13
2022-08-03T01:01:43.760Z,94.14
2022-08-03T01:02:30.539Z,94.17
2022-08-03T01:03:17.302Z,94.32
2022-08-03T01:04:04.121Z,94.28
2022-08-03T01:04:50.970Z,94.41
2022-08-03T01:05:56.969Z,94.43
2022-08-03T01:06:49.091Z,94.57
2022-08-03T01:08:03.940Z,94.25
2022-08-03T01:09:09.310Z,94.11
2022-08-03T01:10:07.059Z,93.95
2022-08-03T01:11:09.389Z,94.14
2022-08-03T01:12:04.288Z,94.49
2022-08-03T01:12:54.070Z,94.50
2022-08-03T01:14:18.537Z,94.78
2022-08-03T01:15:11.620Z,94.92
2022-08-03T01:16:11.280Z,95.06
2022-08-03T01:17:02.440Z,95.01
2022-08-03T01:17:55.830Z,94.90
2022-08-03T01:18:53.781Z,94.60
2022-08-03T01:19:51.341Z,95.13
2022-08-03T01:20:41.409Z,95.16
2022-08-03T01:21:37.049Z,95.31
2022-08-03T01:23:03.659Z,95.53
2022-08-03T01:24:07.687Z,95.73
2022-08-03T01:25:04.723Z,96.33
2022-08-03T01:26:21.439Z,96.06
2022-08-03T01:27:18.630Z,95.67
2022-08-03T01:28:24.248Z,95.68
2022-08-03T01:29:33.969Z,95.55
2022-08-03T01:30:21.021Z,95.35
2022-08-03T01:31:09.930Z,95.49
2022-08-03T01:32:58.801Z,95.80
2022-08-03T01:33:15.669Z,95.70
2022-08-03T01:34:04.620Z,96.01
2022-08-03T01:35:03.104Z,96.32
2022-08-03T01:36:10.041Z,96.12
2022-08-03T01:36:57.859Z,96.07
2022-08-03T01:38:00.104Z,96.51
2022-08-03T01:38:51.379Z,96.62
2022-08-03T01:39:39.999Z,96.31
2022-08-03T01:40:28.053Z,95.91
2022-08-03T01:41:19.069Z,96.09
2022-08-03T01:42:08.098Z,96.36
2022-08-03T01:42:56.438Z,96.37
2022-08-03T01:44:28.126Z,96.36
2022-08-03T01:44:52.799Z,96.28
2022-08-03T01:45:40.017Z,96.08
2022-08-03T01:46:27.329Z,95.73
2022-08-03T01:47:14.463Z,95.61
2022-08-03T01:48:02.088Z,95.63
2022-08-03T01:48:49.519Z,95.78
2022-08-03T01:49:40.354Z,95.76
2022-08-03T01:50:29.579Z,95.84
2022-08-03T01:51:18.910Z,96.15
2022-08-03T01:52:06.678Z,96.43
2022-08-03T01:52:55.160Z,96.42
2022-08-03T01:53:44.947Z,96.47
2022-08-03T01:54:36.870Z,96.66
2022-08-03T01:55:27.482Z,96.67
2022-08-03T01:56:14.500Z,96.82
2022-08-03T01:57:02.610Z,96.89
2022-08-03T01:58:05.247Z,97.32
2022-08-03T01:58:54.170Z,97.52
2022-08-03T01:59:42.533Z,97.56
2022-08-03T02:00:30.249Z,97.72
2022-08-03T02:01:17.481Z,97.71
2022-08-03T02:02:15.546Z,97.83
2022-08-03T02:03:13.557Z,97.69
2022-08-03T02:04:01.265Z,97.59
2022-08-03T02:04:48.419Z,97.44
2022-08-03T02:05:35.589Z,97.21
2022-08-03T02:07:02.058Z,96.81
2022-08-03T02:07:30.353Z,96.54
2022-08-03T02:08:18.399Z,96.71
2022-08-03T02:09:07.238Z,96.96
2022-08-03T02:09:54.971Z,97.21
2022-08-03T02:10:42.688Z,97.17
2022-08-03T02:11:31.841Z,97.02
2022-08-03T02:12:19.430Z,96.98
2022-08-03T02:13:08.259Z,96.94
2022-08-03T02:13:55.149Z,97.19
2022-08-03T02:14:44.748Z,97.29
2022-08-03T02:15:33.189Z,97.40
2022-08-03T02:16:20.387Z,97.38
2022-08-03T02:17:08.401Z,97.19
2022-08-03T02:17:56.026Z,96.87
2022-08-03T02:18:42.889Z,96.72
2022-08-03T02:19:35.500Z,96.58
2022-08-03T02:20:22.719Z,96.98
2022-08-03T02:21:11.395Z,97.35
2022-08-03T02:22:18.482Z,97.54
2022-08-03T02:23:06.858Z,97.30
2022-08-03T02:23:53.660Z,97.01
2022-08-03T02:24:40.869Z,96.84
2022-08-03T02:25:28.568Z,96.98
2022-08-03T02:26:17.919Z,97.05
2022-08-03T02:27:08.231Z,97.21
2022-08-03T02:28:09.140Z,97.58
2022-08-03T02:28:57.247Z,97.84
2022-08-03T02:29:47.418Z,97.87
2022-08-03T02:30:39.489Z,97.97
2022-08-03T02:31:29.390Z,97.95
2022-08-03T02:32:18.562Z,97.86
2022-08-03T02:33:08.890Z,97.76
2022-08-03T02:34:02.899Z,98.02
2022-08-03T02:34:52.411Z,98.08
2022-08-03T02:35:40.198Z,98.08
2022-08-03T02:36:29.598Z,98.29
2022-08-03T02:37:19.774Z,98.16
2022-08-03T02:38:08.559Z,98.52
2022-08-03T02:38:57.769Z,98.51
2022-08-03T02:39:47.608Z,98.57
2022-08-03T02:40:34.481Z,98.75
2022-08-03T02:41:40.116Z,98.93
2022-08-03T02:42:27.290Z,99.13
2022-08-03T02:43:18.459Z,99.47
2022-08-03T02:44:10.079Z,99.74
2022-08-03T02:44:58.877Z,99.67
2022-08-03T02:45:48.308Z,99.41
2022-08-03T02:46:40.319Z,99.01
2022-08-03T02:47:29.059Z,98.62
2022-08-03T02:48:37.438Z,98.71
2022-08-03T02:49:40.814Z,98.35
2022-08-03T02:50:31.856Z,98.12
2022-08-03T02:51:19.589Z,98.00
2022-08-03T02:52:13.083Z,98.14
2022-08-03T02:53:02.158Z,98.24
2022-08-03T02:53:49.129Z,98.31
2022-08-03T02:54:36.467Z,98.54
2022-08-03T02:55:24.149Z,98.55
2022-08-03T02:56:12.010Z,98.65
2022-08-03T02:56:59.238Z,98.75
2022-08-03T02:57:47.187Z,98.84
2022-08-03T02:58:34.239Z,99.05
2022-08-03T02:59:21.447Z,98.82
2022-08-03T03:00:09.406Z,98.45
2022-08-03T03:00:56.553Z,98.26
2022-08-03T03:01:44.647Z,98.43
2022-08-03T03:02:32.215Z,98.67
2022-08-03T03:03:19.416Z,98.49
2022-08-03T03:04:07.777Z,98.42
2022-08-03T03:05:52.634Z,98.33
2022-08-03T03:06:05.812Z,98.28
2022-08-03T03:06:53.108Z,98.16
2022-08-03T03:07:53.091Z,98.32
2022-08-03T03:08:40.189Z,98.26
2022-08-03T03:09:27.058Z,98.45
2022-08-03T03:10:27.378Z,98.56
2022-08-03T03:11:15.679Z,98.36
2022-08-03T03:12:03.276Z,98.79
2022-08-03T03:12:55.738Z,98.80
2022-08-03T03:13:44.487Z,98.83
2022-08-03T03:14:33.746Z,98.82
2022-08-03T03:15:21.514Z,99.06
2022-08-03T03:16:08.878Z,99.20
2022-08-03T03:16:57.822Z,99.05
2022-08-03T03:17:45.038Z,98.89
2022-08-03T03:18:33.469Z,98.70
2022-08-03T03:19:20.448Z,98.53
2022-08-03T03:20:08.346Z,98.43
2022-08-03T03:20:55.839Z,98.50
2022-08-03T03:21:43.886Z,98.60
2022-08-03T03:22:31.768Z,98.64
2022-08-03T03:23:18.587Z,98.10
2022-08-03T03:24:06.638Z,97.93
2022-08-03T03:24:54.851Z,98.10
2022-08-03T03:25:41.968Z,98.16
2022-08-03T03:26:28.979Z,98.17
2022-08-03T03:27:16.700Z,98.58
2022-08-03T03:28:04.949Z,98.69
2022-08-03T03:28:53.279Z,99.01
2022-08-03T03:29:40.168Z,99.24
2022-08-03T03:30:27.491Z,99.05
2022-08-03T03:31:14.329Z,98.94
2022-08-03T03:32:01.687Z,98.75
2022-08-03T03:32:52.195Z,98.65
2022-08-03T03:33:39.708Z,98.48
2022-08-03T03:34:26.490Z,98.45
2022-08-03T03:35:16.780Z,98.21
2022-08-03T03:36:04.978Z,98.29
2022-08-03T03:36:51.728Z,98.17
2022-08-03T03:37:38.566Z,98.24
2022-08-03T03:38:25.567Z,98.36
2022-08-03T03:39:15.165Z,98.34
2022-08-03T03:40:03.847Z,98.20
2022-08-03T03:40:50.663Z,98.21
2022-08-03T03:41:37.497Z,98.02
2022-08-03T03:42:25.547Z,97.74
2022-08-03T03:43:12.863Z,97.55
2022-08-03T03:43:59.799Z,97.81
2022-08-03T03:44:46.597Z,97.93
2022-08-03T03:45:34.969Z,97.95
2022-08-03T03:46:21.985Z,97.81
2022-08-03T03:47:08.808Z,97.65
2022-08-03T03:47:55.767Z,97.66
2022-08-03T03:48:42.698Z,97.56
2022-08-03T03:49:29.590Z,97.50
2022-08-03T03:50:18.727Z,97.15
2022-08-03T03:51:06.186Z,96.90
2022-08-03T03:51:55.200Z,96.90
2022-08-03T03:52:41.989Z,96.84
2022-08-03T03:53:28.757Z,96.32
2022-08-03T03:54:15.547Z,96.17
2022-08-03T03:55:02.388Z,96.28
2022-08-03T03:55:59.539Z,96.37
2022-08-03T03:56:49.842Z,96.34
2022-08-03T03:57:36.608Z,96.57
2022-08-03T03:58:23.367Z,96.46
2022-08-03T03:59:11.837Z,95.96
2022-08-03T03:59:58.587Z,95.87
2022-08-03T04:00:45.508Z,95.73
2022-08-03T04:01:32.607Z,95.44
2022-08-03T04:02:19.307Z,95.43
2022-08-03T04:03:06.026Z,95.31
2022-08-03T04:03:54.976Z,95.19
2022-08-03T04:05:00.616Z,95.24
2022-08-03T04:06:06.298Z,95.28
2022-08-03T04:07:12.225Z,95.22
2022-08-03T04:08:18.907Z,95.44
2022-08-03T04:09:25.418Z,95.05
2022-08-03T04:10:42.070Z,94.64
2022-08-03T04:11:32.180Z,94.85
2022-08-03T04:12:20.028Z,94.46
2022-08-03T04:13:10.258Z,94.23
2022-08-03T04:13:57.648Z,93.97
2022-08-03T04:14:49.107Z,93.68
2022-08-03T04:15:38.217Z,93.21
2022-08-03T04:16:28.407Z,93.15
2022-08-03T04:17:15.538Z,93.02
2022-08-03T04:18:04.690Z,93.01
2022-08-03T04:18:54.776Z,92.77
2022-08-03T04:19:48.527Z,92.77
2022-08-03T04:20:36.247Z,92.45
2022-08-03T04:21:23.728Z,92.07
2022-08-03T04:22:15.029Z,90.10
2022-08-03T04:23:03.299Z,84.39
2022-08-03T04:24:02.447Z,79.82
2022-08-03T04:24:52.708Z,74.45
2022-08-03T04:25:40.568Z,70.99
2022-08-03T04:26:30.598Z,70.82
2022-08-03T04:27:23.907Z,70.31
2022-08-03T04:28:30.005Z,71.59
2022-08-03T04:29:19.178Z,73.27
2022-08-03T04:30:07.279Z,73.77
2022-08-03T04:30:54.587Z,74.74
2022-08-03T04:31:43.678Z,74.84
2022-08-03T04:32:30.907Z,75.27
2022-08-03T04:33:18.218Z,75.22
2022-08-03T04:34:06.182Z,74.66
2022-08-03T04:34:53.118Z,74.68
2022-08-03T04:36:01.657Z,74.80
2022-08-03T04:36:50.479Z,74.67
2022-08-03T04:37:44.278Z,72.87
2022-08-03T04:38:40.485Z,71.81
2022-08-03T04:39:30.046Z,70.06
2022-08-03T04:40:32.607Z,68.91
2022-08-03T04:41:21.587Z,67.43
2022-08-03T04:42:09.502Z,67.53
2022-08-03T04:42:56.711Z,66.79
2022-08-03T04:43:43.964Z,65.51
2022-08-03T04:44:31.977Z,64.31
2022-08-03T04:45:19.537Z,64.79
2022-08-03T04:46:07.397Z,65.54
2022-08-03T04:46:54.262Z,66.21
2022-08-03T04:47:41.778Z,66.77
2022-08-03T04:48:28.747Z,67.35
2022-08-03T04:49:16.298Z,68.41
2022-08-03T04:50:04.957Z,68.55
2022-08-03T04:50:54.187Z,68.51
2022-08-03T04:51:41.067Z,68.51
2022-08-03T04:52:27.877Z,68.54
2022-08-03T04:53:14.627Z,68.76
2022-08-03T04:54:02.255Z,68.23
2022-08-03T04:54:50.820Z,68.16
2022-08-03T04:55:37.802Z,67.33
2022-08-03T04:56:24.687Z,67.03
2022-08-03T04:57:22.331Z,66.20
2022-08-03T04:58:10.617Z,63.88
2022-08-03T04:58:57.417Z,59.64
2022-08-03T04:59:44.311Z,55.65
2022-08-03T05:00:31.623Z,52.16
2022-08-03T05:01:20.619Z,49.97
2022-08-03T05:02:07.520Z,49.20
2022-08-03T05:02:54.487Z,48.15
2022-08-03T05:03:41.268Z,47.65
2022-08-03T05:04:28.008Z,48.68
2022-08-03T05:05:16.015Z,49.92
2022-08-03T05:06:09.683Z,51.20
2022-08-03T05:06:57.998Z,52.97
2022-08-03T05:07:45.150Z,54.16
2022-08-03T05:08:32.028Z,55.80
2022-08-03T05:09:25.924Z,57.02
2022-08-03T05:10:25.659Z,58.19
2022-08-03T05:11:12.476Z,58.47
2022-08-03T05:11:59.201Z,58.80
2022-08-03T05:12:46.614Z,58.80
2022-08-03T05:13:33.506Z,58.29
2022-08-03T05:14:28.307Z,58.34
2022-08-03T05:15:15.388Z,57.64
2022-08-03T05:16:02.287Z,56.14
2022-08-03T05:16:49.039Z,54.69
2022-08-03T05:17:38.097Z,53.19
2022-08-03T05:18:24.896Z,51.98
2022-08-03T05:19:11.618Z,51.69
2022-08-03T05:19:58.278Z,51.18
2022-08-03T05:20:45.049Z,50.59
2022-08-03T05:21:50.313Z,50.76
2022-08-03T05:22:39.073Z,50.49
2022-08-03T05:23:25.833Z,50.52
2022-08-03T05:24:12.569Z,50.69
2022-08-03T05:24:59.348Z,51.36
2022-08-03T05:25:50.044Z,51.80
2022-08-03T05:26:37.399Z,53.67
2022-08-03T05:27:24.157Z,55.30
2022-08-03T05:28:10.940Z,55.59
2022-08-03T05:28:57.651Z,56.00
2022-08-03T05:29:44.420Z,56.45
2022-08-03T05:30:34.017Z,57.12
2022-08-03T05:31:21.228Z,57.20
2022-08-03T05:32:08.515Z,56.40
2022-08-03T05:32:55.688Z,56.20
2022-08-03T05:33:44.958Z,56.50
2022-08-03T05:34:32.108Z,57.11
2022-08-03T05:35:57.366Z,57.54
2022-08-03T05:36:25.538Z,58.48
2022-08-03T05:37:12.439Z,58.68
2022-08-03T05:37:59.179Z,59.07
2022-08-03T05:38:46.028Z,59.50
2022-08-03T05:39:33.258Z,59.73
2022-08-03T05:40:20.178Z,60.26
2022-08-03T05:41:22.580Z,61.40
2022-08-03T05:42:10.840Z,61.90
2022-08-03T05:42:57.768Z,61.67
2022-08-03T05:43:45.299Z,60.93
2022-08-03T05:44:32.362Z,62.84
2022-08-03T05:45:19.148Z,62.71
2022-08-03T05:46:12.275Z,62.10
2022-08-03T05:46:59.668Z,62.36
2022-08-03T05:47:46.627Z,60.66
2022-08-03T05:48:33.358Z,61.04
2022-08-03T05:49:20.685Z,60.17
2022-08-03T05:50:08.129Z,59.99
2022-08-03T05:50:54.899Z,60.90
2022-08-03T05:51:41.665Z,59.57
2022-08-03T05:52:28.597Z,59.58
2022-08-03T05:53:15.451Z,60.50
2022-08-03T05:54:02.657Z,59.31
2022-08-03T05:54:56.647Z,59.58
2022-08-03T05:55:44.387Z,60.02
2022-08-03T05:56:31.304Z,60.13
2022-08-03T05:57:18.088Z,59.28
2022-08-03T05:58:05.049Z,59.62
2022-08-03T05:58:52.679Z,60.04
2022-08-03T05:59:39.360Z,59.69
2022-08-03T06:00:40.488Z,59.53
2022-08-03T06:01:27.442Z,58.92
2022-08-03T06:02:14.309Z,58.58
2022-08-03T06:03:01.187Z,58.97
2022-08-03T06:03:48.879Z,59.55
2022-08-03T06:04:35.620Z,58.95
2022-08-03T06:05:22.370Z,58.75
2022-08-03T06:06:09.169Z,58.91
2022-08-03T06:06:55.956Z,59.57
2022-08-03T06:07:42.759Z,60.00
2022-08-03T06:08:29.497Z,60.00
2022-08-03T06:09:17.132Z,60.50
2022-08-03T06:10:35.416Z,59.83
2022-08-03T06:11:12.809Z,59.47
2022-08-03T06:11:59.587Z,59.12
2022-08-03T06:12:49.459Z,58.81
2022-08-03T06:13:36.378Z,59.72
2022-08-03T06:14:23.158Z,59.84
2022-08-03T06:15:11.282Z,60.35
2022-08-03T06:15:58.409Z,59.77
2022-08-03T06:16:45.168Z,60.37
2022-08-03T06:17:37.241Z,60.42
2022-08-03T06:18:24.822Z,60.33
2022-08-03T06:19:11.591Z,60.52
2022-08-03T06:19:58.539Z,59.58
2022-08-03T06:20:45.538Z,59.92
2022-08-03T06:21:34.038Z,59.96
2022-08-03T06:22:21.519Z,60.01
2022-08-03T06:23:08.290Z,59.61
2022-08-03T06:24:03.046Z,60.47
2022-08-03T06:24:53.654Z,60.12
2022-08-03T06:25:40.579Z,60.62
2022-08-03T06:26:28.730Z,60.66
2022-08-03T06:27:15.603Z,61.00
2022-08-03T06:28:02.496Z,60.77
2022-08-03T06:28:53.203Z,61.01
2022-08-03T06:29:40.940Z,61.11
2022-08-03T06:30:27.839Z,60.84
2022-08-03T06:31:14.619Z,60.82
2022-08-03T06:32:01.459Z,60.95
2022-08-03T06:32:51.902Z,61.83
2022-08-03T06:34:30.721Z,61.67
2022-08-03T06:34:46.019Z,61.51
2022-08-03T06:35:33.659Z,60.50
2022-08-03T06:36:22.740Z,60.71
2022-08-03T06:37:09.549Z,61.62
2022-08-03T06:37:56.447Z,62.09
2022-08-03T06:38:43.182Z,61.30
2022-08-03T06:39:30.303Z,60.42
2022-08-03T06:40:24.385Z,61.08
2022-08-03T06:41:11.477Z,61.59
2022-08-03T06:41:58.325Z,61.26
2022-08-03T06:42:45.161Z,60.27
2022-08-03T06:43:36.025Z,59.42
2022-08-03T06:44:22.856Z,59.39
2022-08-03T06:45:10.189Z,58.86
2022-08-03T06:45:56.951Z,58.04
2022-08-03T06:46:43.706Z,57.42
2022-08-03T06:47:30.518Z,57.26
2022-08-03T06:48:17.759Z,57.66
2022-08-03T06:49:04.720Z,57.88
2022-08-03T06:50:16.267Z,57.45
2022-08-03T06:50:58.318Z,58.51
2022-08-03T06:52:04.568Z,58.36
2022-08-03T06:52:51.900Z,57.91
2022-08-03T06:53:38.812Z,57.49
2022-08-03T06:54:25.709Z,57.11
2022-08-03T06:55:12.452Z,56.67
2022-08-03T06:55:59.269Z,55.91
2022-08-03T06:56:46.019Z,57.10
2022-08-03T06:57:32.816Z,56.91
2022-08-03T06:58:19.641Z,57.65
2022-08-03T06:59:06.423Z,57.33
2022-08-03T07:00:10.363Z,57.12
2022-08-03T07:00:58.620Z,56.47
2022-08-03T07:01:45.534Z,57.17
2022-08-03T07:02:32.340Z,56.82
2022-08-03T07:03:19.151Z,57.72
2022-08-03T07:04:06.240Z,58.03
2022-08-03T07:04:52.993Z,57.46
2022-08-03T07:05:40.248Z,58.34
2022-08-03T07:06:27.091Z,57.76
2022-08-03T07:07:14.248Z,57.77
2022-08-03T07:08:03.261Z,58.06
2022-08-03T07:08:52.945Z,57.92
2022-08-03T07:09:41.731Z,57.72
2022-08-03T07:10:28.919Z,57.78
2022-08-03T07:11:15.720Z,57.99
2022-08-03T07:12:02.678Z,57.87
2022-08-03T07:12:55.865Z,58.08
2022-08-03T07:13:43.710Z,58.67
2022-08-03T07:14:30.479Z,57.60
2022-08-03T07:15:20.238Z,58.11
2022-08-03T07:16:25.213Z,58.08
2022-08-03T07:17:12.138Z,57.92
2022-08-03T07:17:58.987Z,55.89
2022-08-03T07:18:45.699Z,56.29
2022-08-03T07:19:32.391Z,56.60
2022-08-03T07:20:19.498Z,56.76
2022-08-03T07:21:06.441Z,56.42
2022-08-03T07:21:53.555Z,56.76
2022-08-03T07:22:40.428Z,56.08
2022-08-03T07:23:27.271Z,56.29
2022-08-03T07:24:14.043Z,55.86
2022-08-03T07:25:00.841Z,55.45
2022-08-03T07:25:47.570Z,55.26
2022-08-03T07:26:34.349Z,55.96
2022-08-03T07:27:21.518Z,56.87
2022-08-03T07:28:08.600Z,55.94
2022-08-03T07:28:55.490Z,55.40
2022-08-03T07:29:42.399Z,55.50
2022-08-03T07:30:29.119Z,55.72
2022-08-03T07:31:15.910Z,55.35
2022-08-03T07:32:03.931Z,54.93
2022-08-03T07:32:50.898Z,54.22
2022-08-03T07:33:37.619Z,53.83
2022-08-03T07:34:24.371Z,54.25
2022-08-03T07:35:25.187Z,53.37
2022-08-03T07:36:12.189Z,53.54
2022-08-03T07:36:59.019Z,54.10
2022-08-03T07:37:46.122Z,53.71
2022-08-03T07:38:41.520Z,53.28
2022-08-03T07:39:28.227Z,53.13
2022-08-03T07:40:14.921Z,53.52
2022-08-03T07:41:01.589Z,54.36
2022-08-03T07:41:50.630Z,53.62
2022-08-03T07:42:37.319Z,53.79
2022-08-03T07:43:24.502Z,54.13
2022-08-03T07:44:11.162Z,53.06
2022-08-03T07:44:58.749Z,53.51
2022-08-03T07:45:45.441Z,54.36
2022-08-03T07:46:32.966Z,54.62
2022-08-03T07:47:23.987Z,54.16
2022-08-03T07:48:12.623Z,53.06
2022-08-03T07:48:59.427Z,53.22
2022-08-03T07:49:47.022Z,52.05
2022-08-03T07:50:33.979Z,52.21
2022-08-03T07:51:20.707Z,52.41
2022-08-03T07:52:28.383Z,51.12
2022-08-03T07:53:15.249Z,52.31
2022-08-03T07:54:01.949Z,51.79
2022-08-03T07:54:48.610Z,51.64
2022-08-03T07:55:35.341Z,51.42
2022-08-03T07:56:22.924Z,52.00
2022-08-03T07:57:09.557Z,52.13
2022-08-03T07:58:07.862Z,51.99
2022-08-03T07:58:55.462Z,51.74
2022-08-03T08:00:01.485Z,52.21
2022-08-03T08:00:48.970Z,51.98
2022-08-03T08:01:38.072Z,51.88
2022-08-03T08:02:24.982Z,51.62
2022-08-03T08:03:12.419Z,51.24
2022-08-03T08:03:59.049Z,50.92
2022-08-03T08:04:45.688Z,51.16
2022-08-03T08:05:32.488Z,51.79
2022-08-03T08:06:19.400Z,51.38
2022-08-03T08:07:06.160Z,52.47
2022-08-03T08:07:52.837Z,52.60
2022-08-03T08:08:40.189Z,50.56
2022-08-03T08:09:26.971Z,50.80
2022-08-03T08:10:16.193Z,51.00
2022-08-03T08:11:02.868Z,50.66
2022-08-03T08:11:50.352Z,50.00
2022-08-03T08:12:38.703Z,50.09
2022-08-03T08:13:25.392Z,49.97
2022-08-03T08:14:12.591Z,49.52
2022-08-03T08:15:00.051Z,49.64
2022-08-03T08:15:46.940Z,49.81
2022-08-03T08:16:34.079Z,48.92
2022-08-03T08:17:20.832Z,49.53
2022-08-03T08:18:07.458Z,50.10
2022-08-03T08:18:54.199Z,49.89
2022-08-03T08:19:43.777Z,49.67
2022-08-03T08:20:39.109Z,49.90
2022-08-03T08:21:27.289Z,50.08
2022-08-03T08:22:33.988Z,50.42
2022-08-03T08:23:41.964Z,50.34
2022-08-03T08:24:30.618Z,49.95
2022-08-03T08:25:19.361Z,49.20
2022-08-03T08:26:06.188Z,49.22
2022-08-03T08:26:52.838Z,49.61
2022-08-03T08:28:22.276Z,49.92
2022-08-03T08:28:54.839Z,49.60
2022-08-03T08:29:52.664Z,49.02
2022-08-03T08:30:43.318Z,48.91
2022-08-03T08:31:30.230Z,48.84
2022-08-03T08:32:17.011Z,48.98
2022-08-03T08:33:03.999Z,49.76
2022-08-03T08:34:05.915Z,49.59
2022-08-03T08:34:53.378Z,48.87
2022-08-03T08:35:40.151Z,48.60
2022-08-03T08:36:26.964Z,48.54
2022-08-03T08:37:13.719Z,50.48
2022-08-03T08:38:05.558Z,49.75
2022-08-03T08:38:52.724Z,47.80
2022-08-03T08:39:39.580Z,48.08
2022-08-03T08:40:27.754Z,47.94
2022-08-03T08:41:15.478Z,48.60
2022-08-03T08:42:02.259Z,48.53
2022-08-03T08:42:58.464Z,48.35
2022-08-03T08:43:45.758Z,48.80
2022-08-03T08:44:32.469Z,48.96
2022-08-03T08:45:19.588Z,48.91
2022-08-03T08:46:08.626Z,49.14
2022-08-03T08:46:55.970Z,49.08
2022-08-03T08:47:51.525Z,47.82
2022-08-03T08:48:42.709Z,47.62
2022-08-03T08:49:30.291Z,46.90
2022-08-03T08:50:27.629Z,46.50
2022-08-03T08:51:16.871Z,47.49
2022-08-03T08:52:04.432Z,47.05
2022-08-03T08:53:17.640Z,47.12
2022-08-03T08:54:08.328Z,47.93
2022-08-03T08:55:04.288Z,47.28
2022-08-03T08:55:58.557Z,47.79
2022-08-03T08:56:47.408Z,47.93
2022-08-03T08:57:43.246Z,47.10
2022-08-03T08:58:37.446Z,48.29
2022-08-03T08:59:25.609Z,47.44
2022-08-03T09:00:14.844Z,46.90
2022-08-03T09:01:01.725Z,47.42
2022-08-03T09:01:48.618Z,48.08
2022-08-03T09:02:35.744Z,47.64
2022-08-03T09:03:30.182Z,47.31
2022-08-03T09:04:17.818Z,46.82
2022-08-03T09:05:07.496Z,47.02
2022-08-03T09:05:56.337Z,46.79
2022-08-03T09:06:58.608Z,46.94
2022-08-03T09:07:50.357Z,46.63
2022-08-03T09:08:37.199Z,46.74
2022-08-03T09:10:08.834Z,46.09
2022-08-03T09:10:31.079Z,46.14
2022-08-03T09:11:22.308Z,46.75
2022-08-03T09:12:41.552Z,46.26
2022-08-03T09:13:30.649Z,44.79
2022-08-03T09:14:36.697Z,46.36
2022-08-03T09:15:32.573Z,45.13
2022-08-03T09:16:23.198Z,45.42
2022-08-03T09:17:10.189Z,45.51
2022-08-03T09:18:04.758Z,45.68
2022-08-03T09:18:54.977Z,45.72
2022-08-03T09:19:42.780Z,46.22
2022-08-03T09:20:49.541Z,44.32
2022-08-03T09:21:36.344Z,43.74
2022-08-03T09:22:23.187Z,44.50
2022-08-03T09:23:51.433Z,43.99
2022-08-03T09:24:40.688Z,45.00
2022-08-03T09:25:35.638Z,44.34
2022-08-03T09:26:27.818Z,43.90
2022-08-03T09:27:14.804Z,43.81
2022-08-03T09:28:59.916Z,44.26
2022-08-03T09:29:23.868Z,43.32
2022-08-03T09:30:33.244Z,43.68
2022-08-03T09:31:29.837Z,43.18
2022-08-03T09:32:20.320Z,43.86
2022-08-03T09:33:08.377Z,43.81
2022-08-03T09:33:59.978Z,43.90
2022-08-03T09:34:48.918Z,44.21
2022-08-03T09:35:58.815Z,44.23
2022-08-03T09:36:47.950Z,41.60
2022-08-03T09:38:13.504Z,41.79
2022-08-03T09:38:41.608Z,41.67
2022-08-03T09:39:41.055Z,41.98
2022-08-03T09:40:38.051Z,42.41
2022-08-03T09:41:24.830Z,42.65
2022-08-03T09:42:18.423Z,42.84
2022-08-03T09:43:08.309Z,43.25
2022-08-03T09:43:57.229Z,43.02
2022-08-03T09:44:49.479Z,42.45
2022-08-03T09:45:40.138Z,41.88
2022-08-03T09:46:28.649Z,41.98
2022-08-03T09:47:29.557Z,41.52
2022-08-03T09:48:30.547Z,42.34
2022-08-03T09:49:18.201Z,41.41
2022-08-03T09:50:09.159Z,37.24
2022-08-03T09:51:13.044Z,37.32
2022-08-03T09:52:38.198Z,36.92
2022-08-03T09:53:20.090Z,37.25
2022-08-03T09:54:15.052Z,37.05
2022-08-03T09:56:33.541Z,37.17
2022-08-03T09:56:34.643Z,37.52
2022-08-03T09:57:24.591Z,37.24
2022-08-03T09:58:11.503Z,37.85
2022-08-03T09:58:58.219Z,39.20
2022-08-03T09:59:45.038Z,38.77
2022-08-03T10:00:32.109Z,37.87
2022-08-03T10:01:25.359Z,37.72
2022-08-03T10:02:25.233Z,36.68
2022-08-03T10:03:11.998Z,37.15
2022-08-03T10:04:03.414Z,37.95
2022-08-03T10:04:53.337Z,37.80
2022-08-03T10:05:44.668Z,37.10
2022-08-03T10:06:31.544Z,38.00
2022-08-03T10:07:19.684Z,36.53
2022-08-03T10:08:15.117Z,37.98
2022-08-03T10:09:20.664Z,37.18
2022-08-03T10:10:28.942Z,36.86
2022-08-03T10:11:30.077Z,37.81
2022-08-03T10:12:17.269Z,37.58
2022-08-03T10:13:04.116Z,37.94
2022-08-03T10:13:50.949Z,36.72
2022-08-03T10:14:48.347Z,37.02
2022-08-03T10:16:22.824Z,37.70
2022-08-03T10:16:41.968Z,36.76
2022-08-03T10:17:28.698Z,37.11
2022-08-03T10:18:15.497Z,38.10
2022-08-03T10:19:06.259Z,37.58
2022-08-03T10:19:53.208Z,37.98
2022-08-03T10:20:49.049Z,37.46
2022-08-03T10:21:38.873Z,36.59
2022-08-03T10:22:30.701Z,35.95
2022-08-03T10:23:18.454Z,36.00
2022-08-03T10:24:10.908Z,36.98
2022-08-03T10:25:04.677Z,36.54
2022-08-03T10:25:55.389Z,38.14
2022-08-03T10:26:49.705Z,36.44
2022-08-03T10:27:39.099Z,36.40
2022-08-03T10:28:26.209Z,35.97
2022-08-03T10:29:19.066Z,36.20
2022-08-03T10:30:11.273Z,37.38
2022-08-03T10:30:58.252Z,37.22
2022-08-03T10:31:55.894Z,36.53
2022-08-03T10:32:49.799Z,36.66
2022-08-03T10:33:52.011Z,35.45
2022-08-03T10:34:44.410Z,35.85
2022-08-03T10:35:31.898Z,34.46
2022-08-03T10:36:19.099Z,34.32
2022-08-03T10:37:10.599Z,34.20
2022-08-03T10:38:02.427Z,34.10
2022-08-03T10:38:54.438Z,34.15
2022-08-03T10:39:53.596Z,34.46
2022-08-03T10:40:48.586Z,30.52
2022-08-03T10:41:42.811Z,30.82
2022-08-03T10:42:31.611Z,29.65
2022-08-03T10:43:25.691Z,30.49
2022-08-03T10:44:20.488Z,29.80
2022-08-03T10:45:13.596Z,31.40
2022-08-03T10:46:01.208Z,30.00
2022-08-03T10:46:51.247Z,29.93
2022-08-03T10:47:38.161Z,30.55
2022-08-03T10:48:25.546Z,30.98
2022-08-03T10:49:32.829Z,31.78
2022-08-03T10:50:24.757Z,32.57
2022-08-03T10:51:12.143Z,31.57